Terminal Aerodrome Forecast
Issued by NWS Wilmington, NC

Home | Current Version | Previous Version | Text Only | Print | Product List | Glossary On
Versions: 1 2 3 4 5 6 7 8 9 10 11 12 13 14 15 16 17 18 19 20 21
000
FTUS42 KILM 312115 AAA
TAFILM
TAF AMD
KILM 312115Z 3121/0118 08009KT 2SM +SHRA SCT025 BKN100
      TEMPO 3121/3122 5SM SHRA BKN025
     FM010000 03003KT P6SM VCSH SCT030 BKN100
     FM010800 01003KT P6SM BKN005
     FM011330 36008KT P6SM SCT025 BKN100=

USA.gov is the U.S. government's official web portal to all federal, state and local government web resources and services.